createdAt,value
2023-04-22T00:00:50.383Z,5.19
2023-04-22T00:12:50.858Z,4.80
2023-04-22T00:24:51.290Z,4.30
2023-04-22T00:36:51.798Z,4.63
2023-04-22T00:48:52.514Z,4.47
2023-04-22T01:00:52.749Z,4.14
2023-04-22T01:12:53.120Z,3.82
2023-04-22T01:24:53.595Z,4.18
2023-04-22T01:36:54.019Z,4.04
2023-04-22T01:48:54.464Z,3.91
2023-04-22T02:00:54.953Z,4.04
2023-04-22T02:12:55.381Z,3.64
2023-04-22T02:24:55.863Z,3.51
2023-04-22T02:36:56.291Z,3.11
2023-04-22T02:48:56.743Z,2.90
2023-04-22T03:00:57.272Z,2.70
2023-04-22T03:12:57.673Z,2.85
2023-04-22T03:24:58.109Z,2.93
2023-04-22T03:36:58.536Z,3.47
2023-04-22T03:48:59.048Z,2.92
2023-04-22T04:00:59.464Z,2.66
2023-04-22T04:12:59.887Z,2.88
2023-04-22T04:25:00.375Z,2.80
2023-04-22T04:37:00.846Z,2.63
2023-04-22T04:49:01.244Z,2.78
2023-04-22T05:01:01.697Z,3.05
2023-04-22T05:13:04.264Z,3.52
2023-04-22T05:25:02.616Z,4.00
2023-04-22T05:37:03.096Z,4.66
2023-04-22T05:49:03.532Z,5.26
2023-04-22T06:01:03.981Z,6.06
2023-04-22T06:13:04.445Z,7.03
2023-04-22T06:25:04.896Z,7.63
2023-04-22T06:37:05.369Z,8.87
2023-04-22T06:49:05.789Z,10.06
2023-04-22T07:01:06.261Z,11.77
2023-04-22T07:13:06.678Z,13.97
2023-04-22T07:25:07.163Z,16.17
2023-04-22T07:37:07.646Z,16.56
2023-04-22T07:49:08.063Z,17.18
2023-04-22T08:01:08.533Z,17.32
2023-04-22T08:13:08.954Z,18.61
2023-04-22T08:25:09.425Z,18.25
2023-04-22T08:37:09.919Z,19.28
2023-04-22T08:49:10.355Z,18.84
2023-04-22T09:01:10.859Z,20.09
2023-04-22T09:13:11.257Z,20.34
2023-04-22T09:25:11.714Z,19.83
2023-04-22T09:37:12.134Z,21.36
2023-04-22T09:49:12.605Z,19.92
2023-04-22T10:01:13.101Z,20.06
2023-04-22T10:13:13.535Z,22.43
2023-04-22T10:25:14.019Z,22.42
2023-04-22T10:37:14.402Z,22.48
2023-04-22T10:49:15.336Z,20.74
2023-04-22T11:01:15.349Z,20.44
2023-04-22T11:13:15.780Z,21.84
2023-04-22T11:25:16.244Z,22.35
2023-04-22T11:37:16.722Z,20.82
2023-04-22T11:49:17.157Z,21.76
2023-04-22T12:01:17.595Z,22.04
2023-04-22T12:13:18.074Z,21.98
2023-04-22T12:25:18.550Z,22.81
2023-04-22T12:37:19.025Z,24.23
2023-04-22T12:49:19.430Z,23.60
2023-04-22T13:01:19.909Z,24.23
2023-04-22T13:13:20.351Z,24.86
2023-04-22T13:25:20.848Z,24.16
2023-04-22T13:37:21.271Z,23.85
2023-04-22T13:49:21.713Z,25.46
2023-04-22T14:01:22.174Z,24.15
2023-04-22T14:13:22.660Z,23.70
2023-04-22T14:25:23.119Z,24.79
2023-04-22T14:37:24.090Z,25.26
2023-04-22T14:49:23.995Z,25.13
2023-04-22T15:01:24.497Z,24.57
2023-04-22T15:13:24.905Z,24.66
2023-04-22T15:25:25.380Z,23.94
2023-04-22T15:37:25.834Z,22.56
2023-04-22T15:49:26.275Z,23.30
2023-04-22T16:01:26.775Z,21.92
2023-04-22T16:13:27.161Z,21.22
2023-04-22T16:25:27.646Z,20.73
2023-04-22T16:37:28.129Z,19.63
2023-04-22T16:49:28.577Z,19.48
2023-04-22T17:01:29.050Z,20.01
2023-04-22T17:13:29.456Z,20.00
2023-04-22T17:25:29.923Z,18.37
2023-04-22T17:37:30.361Z,17.68
2023-04-22T17:49:30.821Z,16.73
2023-04-22T18:01:31.309Z,16.35
2023-04-22T18:13:31.760Z,15.74
2023-04-22T18:25:32.187Z,14.78
2023-04-22T18:37:32.642Z,14.39
2023-04-22T18:49:33.114Z,13.82
2023-04-22T19:01:33.641Z,13.27
2023-04-22T19:13:34.008Z,12.58
2023-04-22T19:25:34.460Z,12.51
2023-04-22T19:37:35.007Z,11.98
2023-04-22T19:49:35.399Z,11.76
2023-04-22T20:01:35.877Z,11.42
2023-04-22T20:13:36.288Z,11.25
2023-04-22T20:25:36.749Z,11.25
2023-04-22T20:37:37.247Z,11.07
2023-04-22T20:49:37.635Z,10.56
2023-04-22T21:01:38.225Z,9.85
2023-04-22T21:13:38.566Z,9.61
2023-04-22T21:25:39.028Z,9.86
2023-04-22T21:37:39.476Z,9.94
2023-04-22T21:49:39.941Z,9.73
2023-04-22T22:01:40.398Z,9.50
2023-04-22T22:13:40.847Z,9.34
2023-04-22T22:25:41.275Z,10.19
2023-04-22T22:37:41.742Z,9.41
2023-04-22T22:49:42.179Z,8.79
2023-04-22T23:01:42.687Z,8.66
2023-04-22T23:13:43.067Z,9.25
2023-04-22T23:25:43.533Z,9.94
2023-04-22T23:37:43.999Z,9.20
2023-04-22T23:49:44.467Z,9.43
